Bristol, Wielka Brytania

18:45 GMT dnia 28-marzec-2015 (GMT +0000)
IENGLAND416 | | Change Station
CLOSE
Current Station
Stacja PWS
Location: Bristol, ENGLAND
n.p.m.: 223 ft
Najbliższa stacja pogodowa

Wysokość 223 ft 51.48 °N, 2.60 °W | Updated 44 minutes ago

Mostly Cloudy
przewaga chmur
50.9 ° F
Odczuwalna 50.9 ° F
Płn.
13.6
Wiatr zmienny Wiatr od północny
Gusts 22.1 mph

Dziś
Wysoka -- | Niska -- ° F
--% Prawdop. opadów
Wczoraj
Wysoka -- | Niska -- ° F
Precip. -- cali
5:55 AM 6:36 PM
Powiększający się Księżyc, 64% visible
Ciśnienie 29.77 cali
Widzialność 5.6 mil
chmury przewaga chmur 1100 ft
Punkt rosy 47 ° F
Wilgotność 86%
Opady deszczu 0.07 cali
grubość pokrywy śnieżnej Niedostępne.
UV 0 z 12
Pyłki Niedostępne.
Jakość powietrza Niedostępne.
Flu Activity Niedostępne.
METAR EGGD 281820Z 25021G32KT 9000 VCSH BKN011 09/08 Q1008

More Conditions Fewer Conditions

Ciśnienie 29.77 cali
Widzialność 5.6 mil
chmury przewaga chmur 1100 ft
Punkt rosy 47 ° F
Wilgotność 86%
Opady deszczu 0.07 cali
grubość pokrywy śnieżnej Niedostępne.
UV 0 z 12
Pyłki Niedostępne.
Jakość powietrza Niedostępne.
Flu Activity Niedostępne.
METAR EGGD 281820Z 25021G32KT 9000 VCSH BKN011 09/08 Q1008

More Conditions Fewer Conditions

10-Day Weather Forecast

Almanac

Astronomia

Mar. 28, 2015 Wschód Zachów
Aktualny czas
Zmierzch cywilny
Zmierzch żeglarski
świt/zmierzch astronomiczny
Księżyc
całkowite oświetlenie
Długość dnia
Tomorrow will be .
, % of the Moon is Illuminated

Dzisiejsze ekstrema

Country Highs Country Lows

Community

WunderPhotos

Upload Photos

1,809,055 zdjęcia zostały przesłane!

WunderBlogs® & News

Nearby

Jakość powietrza

  Jakość powietrza czynnik AQ Zanieczyszczenie
Not available.

Głębokość pokrywy śnieżnej

Station Depth n.p.m.

Aktywność sejsmiczna

Miejscowość Distance Mag. Time & Date
Minimum magnitude displayed is 2.5.

Temperatury wody na wybrzeżu

Miejsce Temperatura

Stations

Najbliższa stacja pogodowa

Lokalizacja stacji Temp. czynnik chłodzący wiatru Punkt rosy Wilgotność Wiatr Precip. Wysokość Uaktualniono Typ